sensor_id;sensor_type;location;lat;lon;timestamp;P1;durP1;ratioP1;P2;durP2;ratioP2
51288;SDS011;37372;52.294;5.152;2023-11-18T00:01:23;55.53;;;20.88;;
51288;SDS011;37372;52.294;5.152;2023-11-18T00:03:49;50.63;;;20.00;;
51288;SDS011;37372;52.294;5.152;2023-11-18T00:06:15;54.70;;;19.93;;
51288;SDS011;37372;52.294;5.152;2023-11-18T00:08:42;57.85;;;20.67;;
51288;SDS011;37372;52.294;5.152;2023-11-18T00:11:08;54.80;;;20.55;;
51288;SDS011;37372;52.294;5.152;2023-11-18T00:13:36;49.27;;;20.57;;
51288;SDS011;37372;52.294;5.152;2023-11-18T00:16:03;53.35;;;19.30;;
51288;SDS011;37372;52.294;5.152;2023-11-18T00:18:32;50.08;;;20.95;;
51288;SDS011;37372;52.294;5.152;2023-11-18T00:20:58;52.03;;;19.77;;
51288;SDS011;37372;52.294;5.152;2023-11-18T00:23:24;56.25;;;20.80;;
51288;SDS011;37372;52.294;5.152;2023-11-18T00:25:51;57.28;;;20.27;;
51288;SDS011;37372;52.294;5.152;2023-11-18T00:28:17;56.10;;;20.38;;
51288;SDS011;37372;52.294;5.152;2023-11-18T00:30:45;52.83;;;20.05;;
51288;SDS011;37372;52.294;5.152;2023-11-18T00:33:10;50.90;;;19.97;;
51288;SDS011;37372;52.294;5.152;2023-11-18T00:35:36;52.40;;;20.05;;
51288;SDS011;37372;52.294;5.152;2023-11-18T00:38:02;53.47;;;20.20;;
51288;SDS011;37372;52.294;5.152;2023-11-18T00:40:28;53.35;;;21.58;;
51288;SDS011;37372;52.294;5.152;2023-11-18T00:42:55;53.92;;;20.10;;
51288;SDS011;37372;52.294;5.152;2023-11-18T00:45:21;56.60;;;20.30;;
51288;SDS011;37372;52.294;5.152;2023-11-18T00:47:46;53.10;;;19.33;;
51288;SDS011;37372;52.294;5.152;2023-11-18T00:50:11;49.63;;;19.90;;
51288;SDS011;37372;52.294;5.152;2023-11-18T00:52:38;49.78;;;20.13;;
51288;SDS011;37372;52.294;5.152;2023-11-18T00:55:06;48.35;;;18.92;;
51288;SDS011;37372;52.294;5.152;2023-11-18T00:57:32;51.93;;;20.93;;
51288;SDS011;37372;52.294;5.152;2023-11-18T00:59:58;52.03;;;18.50;;
51288;SDS011;37372;52.294;5.152;2023-11-18T01:02:23;45.30;;;18.80;;
51288;SDS011;37372;52.294;5.152;2023-11-18T01:04:49;53.03;;;19.47;;
51288;SDS011;37372;52.294;5.152;2023-11-18T01:07:15;48.80;;;19.65;;
51288;SDS011;37372;52.294;5.152;2023-11-18T01:09:41;50.45;;;19.42;;
51288;SDS011;37372;52.294;5.152;2023-11-18T01:12:07;46.50;;;18.37;;
51288;SDS011;37372;52.294;5.152;2023-11-18T01:14:37;49.08;;;18.67;;
51288;SDS011;37372;52.294;5.152;2023-11-18T01:17:04;45.80;;;18.87;;
51288;SDS011;37372;52.294;5.152;2023-11-18T01:19:38;48.15;;;18.17;;
51288;SDS011;37372;52.294;5.152;2023-11-18T01:22:04;48.10;;;19.17;;
51288;SDS011;37372;52.294;5.152;2023-11-18T01:24:33;52.83;;;19.30;;
51288;SDS011;37372;52.294;5.152;2023-11-18T01:26:59;45.70;;;18.03;;
51288;SDS011;37372;52.294;5.152;2023-11-18T01:29:24;46.28;;;18.95;;
51288;SDS011;37372;52.294;5.152;2023-11-18T01:31:51;46.07;;;19.33;;
51288;SDS011;37372;52.294;5.152;2023-11-18T01:34:17;45.75;;;18.65;;
51288;SDS011;37372;52.294;5.152;2023-11-18T01:36:46;47.63;;;18.75;;
51288;SDS011;37372;52.294;5.152;2023-11-18T01:39:14;49.28;;;19.05;;
51288;SDS011;37372;52.294;5.152;2023-11-18T01:41:40;47.78;;;18.70;;
51288;SDS011;37372;52.294;5.152;2023-11-18T01:44:05;48.10;;;19.50;;
51288;SDS011;37372;52.294;5.152;2023-11-18T01:46:33;48.57;;;19.20;;
51288;SDS011;37372;52.294;5.152;2023-11-18T01:49:01;45.90;;;19.13;;
51288;SDS011;37372;52.294;5.152;2023-11-18T01:51:29;45.03;;;18.63;;
51288;SDS011;37372;52.294;5.152;2023-11-18T01:53:55;45.47;;;18.98;;
51288;SDS011;37372;52.294;5.152;2023-11-18T01:56:25;45.75;;;19.15;;
51288;SDS011;37372;52.294;5.152;2023-11-18T01:58:52;46.20;;;19.10;;
51288;SDS011;37372;52.294;5.152;2023-11-18T02:01:18;49.92;;;19.17;;
51288;SDS011;37372;52.294;5.152;2023-11-18T02:03:43;50.38;;;20.05;;
51288;SDS011;37372;52.294;5.152;2023-11-18T02:06:09;47.40;;;19.80;;
51288;SDS011;37372;52.294;5.152;2023-11-18T02:08:36;50.42;;;19.90;;
51288;SDS011;37372;52.294;5.152;2023-11-18T02:11:18;50.72;;;20.58;;
51288;SDS011;37372;52.294;5.152;2023-11-18T02:13:50;46.97;;;19.00;;
51288;SDS011;37372;52.294;5.152;2023-11-18T02:16:18;49.38;;;18.83;;
51288;SDS011;37372;52.294;5.152;2023-11-18T02:18:45;52.95;;;19.30;;
51288;SDS011;37372;52.294;5.152;2023-11-18T02:21:12;46.72;;;19.00;;
51288;SDS011;37372;52.294;5.152;2023-11-18T02:23:40;49.78;;;19.05;;
51288;SDS011;37372;52.294;5.152;2023-11-18T02:26:07;44.37;;;18.63;;
51288;SDS011;37372;52.294;5.152;2023-11-18T02:28:32;48.88;;;18.73;;
51288;SDS011;37372;52.294;5.152;2023-11-18T02:31:09;47.77;;;18.60;;
51288;SDS011;37372;52.294;5.152;2023-11-18T02:33:42;48.60;;;18.50;;
51288;SDS011;37372;52.294;5.152;2023-11-18T02:36:31;47.38;;;18.88;;
51288;SDS011;37372;52.294;5.152;2023-11-18T02:39:04;41.33;;;18.65;;
51288;SDS011;37372;52.294;5.152;2023-11-18T02:41:34;46.37;;;18.37;;
51288;SDS011;37372;52.294;5.152;2023-11-18T02:44:02;46.08;;;18.83;;
51288;SDS011;37372;52.294;5.152;2023-11-18T02:46:33;41.03;;;18.35;;
51288;SDS011;37372;52.294;5.152;2023-11-18T02:49:01;37.67;;;18.17;;
51288;SDS011;37372;52.294;5.152;2023-11-18T02:51:27;41.03;;;18.38;;
51288;SDS011;37372;52.294;5.152;2023-11-18T02:53:53;49.27;;;20.13;;
51288;SDS011;37372;52.294;5.152;2023-11-18T02:56:18;40.67;;;17.87;;
51288;SDS011;37372;52.294;5.152;2023-11-18T02:58:43;44.27;;;17.93;;
51288;SDS011;37372;52.294;5.152;2023-11-18T03:01:09;47.65;;;18.58;;
51288;SDS011;37372;52.294;5.152;2023-11-18T03:03:35;50.17;;;19.37;;
51288;SDS011;37372;52.294;5.152;2023-11-18T03:06:01;44.42;;;17.98;;
51288;SDS011;37372;52.294;5.152;2023-11-18T03:08:27;48.47;;;19.13;;
51288;SDS011;37372;52.294;5.152;2023-11-18T03:10:55;45.45;;;18.83;;
51288;SDS011;37372;52.294;5.152;2023-11-18T03:13:20;44.50;;;18.03;;
51288;SDS011;37372;52.294;5.152;2023-11-18T03:15:46;42.00;;;18.40;;
51288;SDS011;37372;52.294;5.152;2023-11-18T03:18:13;40.90;;;18.35;;
51288;SDS011;37372;52.294;5.152;2023-11-18T03:20:40;43.67;;;17.27;;
51288;SDS011;37372;52.294;5.152;2023-11-18T03:23:06;43.08;;;18.95;;
51288;SDS011;37372;52.294;5.152;2023-11-18T03:25:34;43.73;;;17.53;;
51288;SDS011;37372;52.294;5.152;2023-11-18T03:28:00;46.35;;;17.70;;
51288;SDS011;37372;52.294;5.152;2023-11-18T03:30:27;45.70;;;19.05;;
51288;SDS011;37372;52.294;5.152;2023-11-18T03:32:54;42.55;;;18.55;;
51288;SDS011;37372;52.294;5.152;2023-11-18T03:35:20;41.33;;;18.77;;
51288;SDS011;37372;52.294;5.152;2023-11-18T03:37:46;44.72;;;18.65;;
51288;SDS011;37372;52.294;5.152;2023-11-18T03:40:12;44.90;;;19.63;;
51288;SDS011;37372;52.294;5.152;2023-11-18T03:42:39;49.83;;;19.63;;
51288;SDS011;37372;52.294;5.152;2023-11-18T03:45:06;43.33;;;19.23;;
51288;SDS011;37372;52.294;5.152;2023-11-18T03:47:32;44.88;;;19.75;;
51288;SDS011;37372;52.294;5.152;2023-11-18T03:49:59;45.58;;;18.17;;
51288;SDS011;37372;52.294;5.152;2023-11-18T03:52:25;43.20;;;19.57;;
51288;SDS011;37372;52.294;5.152;2023-11-18T03:54:52;39.75;;;18.75;;
51288;SDS011;37372;52.294;5.152;2023-11-18T03:57:18;42.30;;;19.17;;
51288;SDS011;37372;52.294;5.152;2023-11-18T03:59:44;45.70;;;18.23;;
51288;SDS011;37372;52.294;5.152;2023-11-18T04:02:09;40.23;;;18.97;;
51288;SDS011;37372;52.294;5.152;2023-11-18T04:04:36;42.22;;;18.50;;
51288;SDS011;37372;52.294;5.152;2023-11-18T04:07:03;43.83;;;18.55;;
51288;SDS011;37372;52.294;5.152;2023-11-18T04:09:29;39.78;;;18.42;;
51288;SDS011;37372;52.294;5.152;2023-11-18T04:11:55;38.90;;;18.37;;
51288;SDS011;37372;52.294;5.152;2023-11-18T04:14:20;43.55;;;18.08;;
51288;SDS011;37372;52.294;5.152;2023-11-18T04:16:46;38.50;;;18.15;;
51288;SDS011;37372;52.294;5.152;2023-11-18T04:19:12;38.47;;;17.47;;
51288;SDS011;37372;52.294;5.152;2023-11-18T04:21:38;35.33;;;16.93;;
51288;SDS011;37372;52.294;5.152;2023-11-18T04:24:04;33.30;;;16.70;;
51288;SDS011;37372;52.294;5.152;2023-11-18T04:26:30;41.38;;;17.20;;
51288;SDS011;37372;52.294;5.152;2023-11-18T04:28:56;38.30;;;16.75;;
51288;SDS011;37372;52.294;5.152;2023-11-18T04:31:22;37.00;;;16.87;;
51288;SDS011;37372;52.294;5.152;2023-11-18T04:33:47;40.90;;;17.57;;
51288;SDS011;37372;52.294;5.152;2023-11-18T04:36:13;45.47;;;18.03;;
51288;SDS011;37372;52.294;5.152;2023-11-18T04:38:39;37.73;;;16.70;;
51288;SDS011;37372;52.294;5.152;2023-11-18T04:41:05;40.40;;;17.35;;
51288;SDS011;37372;52.294;5.152;2023-11-18T04:43:31;37.73;;;17.63;;
51288;SDS011;37372;52.294;5.152;2023-11-18T04:45:56;41.92;;;17.40;;
51288;SDS011;37372;52.294;5.152;2023-11-18T04:48:22;40.97;;;17.77;;
51288;SDS011;37372;52.294;5.152;2023-11-18T04:50:47;36.43;;;16.97;;
51288;SDS011;37372;52.294;5.152;2023-11-18T04:53:13;39.03;;;17.43;;
51288;SDS011;37372;52.294;5.152;2023-11-18T04:55:39;39.63;;;16.90;;
51288;SDS011;37372;52.294;5.152;2023-11-18T04:58:04;39.35;;;16.23;;
51288;SDS011;37372;52.294;5.152;2023-11-18T05:00:32;37.40;;;17.00;;
51288;SDS011;37372;52.294;5.152;2023-11-18T05:02:58;38.90;;;17.20;;
51288;SDS011;37372;52.294;5.152;2023-11-18T05:05:23;40.03;;;16.80;;
51288;SDS011;37372;52.294;5.152;2023-11-18T05:07:49;37.05;;;16.23;;
51288;SDS011;37372;52.294;5.152;2023-11-18T05:10:14;38.43;;;16.60;;
51288;SDS011;37372;52.294;5.152;2023-11-18T05:12:39;35.20;;;16.00;;
51288;SDS011;37372;52.294;5.152;2023-11-18T05:15:05;32.53;;;15.37;;
51288;SDS011;37372;52.294;5.152;2023-11-18T05:17:33;37.88;;;16.00;;
51288;SDS011;37372;52.294;5.152;2023-11-18T05:20:03;33.70;;;15.68;;
51288;SDS011;37372;52.294;5.152;2023-11-18T05:22:30;34.90;;;15.45;;
51288;SDS011;37372;52.294;5.152;2023-11-18T05:24:56;37.57;;;15.73;;
51288;SDS011;37372;52.294;5.152;2023-11-18T05:27:23;33.92;;;15.13;;
51288;SDS011;37372;52.294;5.152;2023-11-18T05:29:48;39.30;;;16.02;;
51288;SDS011;37372;52.294;5.152;2023-11-18T05:32:19;31.13;;;15.20;;
51288;SDS011;37372;52.294;5.152;2023-11-18T05:34:45;38.88;;;15.63;;
51288;SDS011;37372;52.294;5.152;2023-11-18T05:37:11;36.20;;;15.15;;
51288;SDS011;37372;52.294;5.152;2023-11-18T05:39:37;38.40;;;15.33;;
51288;SDS011;37372;52.294;5.152;2023-11-18T05:42:09;31.20;;;14.75;;
51288;SDS011;37372;52.294;5.152;2023-11-18T05:44:36;40.08;;;15.02;;
51288;SDS011;37372;52.294;5.152;2023-11-18T05:47:05;34.35;;;14.70;;
51288;SDS011;37372;52.294;5.152;2023-11-18T05:49:31;34.93;;;14.27;;
51288;SDS011;37372;52.294;5.152;2023-11-18T05:51:58;36.85;;;15.70;;
51288;SDS011;37372;52.294;5.152;2023-11-18T05:54:23;34.70;;;15.33;;
51288;SDS011;37372;52.294;5.152;2023-11-18T05:56:48;37.37;;;15.17;;
51288;SDS011;37372;52.294;5.152;2023-11-18T05:59:15;43.22;;;15.75;;
51288;SDS011;37372;52.294;5.152;2023-11-18T06:01:40;34.30;;;15.20;;
51288;SDS011;37372;52.294;5.152;2023-11-18T06:04:06;34.83;;;15.17;;
51288;SDS011;37372;52.294;5.152;2023-11-18T06:06:33;34.25;;;16.27;;
51288;SDS011;37372;52.294;5.152;2023-11-18T06:08:59;35.13;;;15.30;;
51288;SDS011;37372;52.294;5.152;2023-11-18T06:11:30;35.80;;;15.43;;
51288;SDS011;37372;52.294;5.152;2023-11-18T06:13:57;36.53;;;14.77;;
51288;SDS011;37372;52.294;5.152;2023-11-18T06:16:23;34.05;;;14.80;;
51288;SDS011;37372;52.294;5.152;2023-11-18T06:18:50;34.70;;;14.63;;
51288;SDS011;37372;52.294;5.152;2023-11-18T06:21:18;37.65;;;15.63;;
51288;SDS011;37372;52.294;5.152;2023-11-18T06:23:45;38.38;;;14.90;;
51288;SDS011;37372;52.294;5.152;2023-11-18T06:26:12;33.27;;;13.90;;
51288;SDS011;37372;52.294;5.152;2023-11-18T06:28:39;38.40;;;15.30;;
51288;SDS011;37372;52.294;5.152;2023-11-18T06:31:06;37.60;;;14.63;;
51288;SDS011;37372;52.294;5.152;2023-11-18T06:33:37;38.30;;;15.52;;
51288;SDS011;37372;52.294;5.152;2023-11-18T06:36:09;38.55;;;14.43;;
51288;SDS011;37372;52.294;5.152;2023-11-18T06:38:52;35.07;;;14.33;;
51288;SDS011;37372;52.294;5.152;2023-11-18T06:41:20;31.95;;;13.52;;
51288;SDS011;37372;52.294;5.152;2023-11-18T06:43:58;34.25;;;13.68;;
51288;SDS011;37372;52.294;5.152;2023-11-18T06:46:26;31.30;;;13.18;;
51288;SDS011;37372;52.294;5.152;2023-11-18T06:49:00;35.42;;;13.60;;
51288;SDS011;37372;52.294;5.152;2023-11-18T06:51:30;39.50;;;13.90;;
51288;SDS011;37372;52.294;5.152;2023-11-18T06:54:00;36.88;;;13.40;;
51288;SDS011;37372;52.294;5.152;2023-11-18T06:56:29;35.67;;;13.10;;
51288;SDS011;37372;52.294;5.152;2023-11-18T06:58:55;35.20;;;13.82;;
51288;SDS011;37372;52.294;5.152;2023-11-18T07:01:20;38.53;;;13.83;;
51288;SDS011;37372;52.294;5.152;2023-11-18T07:03:46;30.83;;;13.43;;
51288;SDS011;37372;52.294;5.152;2023-11-18T07:06:16;37.85;;;13.50;;
51288;SDS011;37372;52.294;5.152;2023-11-18T07:08:52;40.13;;;14.02;;
51288;SDS011;37372;52.294;5.152;2023-11-18T07:11:19;33.60;;;13.17;;
51288;SDS011;37372;52.294;5.152;2023-11-18T07:13:48;32.85;;;11.95;;
51288;SDS011;37372;52.294;5.152;2023-11-18T07:16:21;37.97;;;13.75;;
51288;SDS011;37372;52.294;5.152;2023-11-18T07:18:50;30.48;;;12.75;;
51288;SDS011;37372;52.294;5.152;2023-11-18T07:21:17;35.28;;;12.82;;
51288;SDS011;37372;52.294;5.152;2023-11-18T07:23:43;35.43;;;12.40;;
51288;SDS011;37372;52.294;5.152;2023-11-18T07:26:09;30.73;;;12.32;;
51288;SDS011;37372;52.294;5.152;2023-11-18T07:28:40;30.10;;;12.67;;
51288;SDS011;37372;52.294;5.152;2023-11-18T07:31:06;35.08;;;12.65;;
51288;SDS011;37372;52.294;5.152;2023-11-18T07:33:34;32.33;;;12.23;;
51288;SDS011;37372;52.294;5.152;2023-11-18T07:35:59;29.23;;;12.17;;
51288;SDS011;37372;52.294;5.152;2023-11-18T07:38:25;28.80;;;12.83;;
51288;SDS011;37372;52.294;5.152;2023-11-18T07:40:52;30.55;;;12.52;;
51288;SDS011;37372;52.294;5.152;2023-11-18T07:43:21;30.67;;;11.82;;
51288;SDS011;37372;52.294;5.152;2023-11-18T07:45:53;37.47;;;11.95;;
51288;SDS011;37372;52.294;5.152;2023-11-18T07:48:19;33.33;;;11.87;;
51288;SDS011;37372;52.294;5.152;2023-11-18T07:50:45;29.48;;;11.85;;
51288;SDS011;37372;52.294;5.152;2023-11-18T07:53:12;32.38;;;12.30;;
51288;SDS011;37372;52.294;5.152;2023-11-18T07:55:39;28.10;;;12.37;;
51288;SDS011;37372;52.294;5.152;2023-11-18T07:58:05;28.55;;;11.85;;
51288;SDS011;37372;52.294;5.152;2023-11-18T08:00:38;30.40;;;11.27;;
51288;SDS011;37372;52.294;5.152;2023-11-18T08:03:10;32.42;;;12.38;;
51288;SDS011;37372;52.294;5.152;2023-11-18T08:05:37;32.58;;;11.70;;
51288;SDS011;37372;52.294;5.152;2023-11-18T08:08:04;29.23;;;12.50;;
51288;SDS011;37372;52.294;5.152;2023-11-18T08:10:31;27.38;;;11.95;;
51288;SDS011;37372;52.294;5.152;2023-11-18T08:12:57;31.58;;;12.27;;
51288;SDS011;37372;52.294;5.152;2023-11-18T08:15:23;30.50;;;12.45;;
51288;SDS011;37372;52.294;5.152;2023-11-18T08:17:51;35.63;;;13.07;;
51288;SDS011;37372;52.294;5.152;2023-11-18T08:20:17;30.05;;;12.38;;
51288;SDS011;37372;52.294;5.152;2023-11-18T08:22:43;34.87;;;12.90;;
51288;SDS011;37372;52.294;5.152;2023-11-18T08:25:09;34.53;;;12.50;;
51288;SDS011;37372;52.294;5.152;2023-11-18T08:27:35;28.40;;;12.18;;
51288;SDS011;37372;52.294;5.152;2023-11-18T08:30:01;28.90;;;12.70;;
51288;SDS011;37372;52.294;5.152;2023-11-18T08:32:30;28.60;;;11.32;;
51288;SDS011;37372;52.294;5.152;2023-11-18T08:34:56;25.10;;;11.37;;
51288;SDS011;37372;52.294;5.152;2023-11-18T08:37:22;28.77;;;11.43;;
51288;SDS011;37372;52.294;5.152;2023-11-18T08:39:47;27.77;;;12.15;;
51288;SDS011;37372;52.294;5.152;2023-11-18T08:42:12;32.47;;;11.90;;
51288;SDS011;37372;52.294;5.152;2023-11-18T08:44:40;25.88;;;11.60;;
51288;SDS011;37372;52.294;5.152;2023-11-18T08:47:06;28.07;;;10.93;;
51288;SDS011;37372;52.294;5.152;2023-11-18T08:49:34;22.30;;;10.90;;
51288;SDS011;37372;52.294;5.152;2023-11-18T08:52:00;26.50;;;10.95;;
51288;SDS011;37372;52.294;5.152;2023-11-18T08:54:26;27.97;;;10.97;;
51288;SDS011;37372;52.294;5.152;2023-11-18T08:57:01;23.17;;;10.35;;
51288;SDS011;37372;52.294;5.152;2023-11-18T08:59:28;24.75;;;10.38;;
51288;SDS011;37372;52.294;5.152;2023-11-18T09:01:55;22.02;;;10.52;;
51288;SDS011;37372;52.294;5.152;2023-11-18T09:04:27;24.40;;;10.63;;
51288;SDS011;37372;52.294;5.152;2023-11-18T09:06:52;27.60;;;10.68;;
51288;SDS011;37372;52.294;5.152;2023-11-18T09:09:19;25.75;;;10.15;;
51288;SDS011;37372;52.294;5.152;2023-11-18T09:11:53;21.95;;;9.88;;
51288;SDS011;37372;52.294;5.152;2023-11-18T09:14:23;23.87;;;10.30;;
51288;SDS011;37372;52.294;5.152;2023-11-18T09:16:49;27.20;;;10.77;;
51288;SDS011;37372;52.294;5.152;2023-11-18T09:19:16;21.95;;;9.90;;
51288;SDS011;37372;52.294;5.152;2023-11-18T09:21:42;21.57;;;10.23;;
51288;SDS011;37372;52.294;5.152;2023-11-18T09:24:09;21.38;;;10.27;;
51288;SDS011;37372;52.294;5.152;2023-11-18T09:26:37;23.85;;;10.02;;
51288;SDS011;37372;52.294;5.152;2023-11-18T09:29:04;20.47;;;9.73;;
51288;SDS011;37372;52.294;5.152;2023-11-18T09:31:37;24.65;;;10.10;;
51288;SDS011;37372;52.294;5.152;2023-11-18T09:34:02;23.00;;;9.85;;
51288;SDS011;37372;52.294;5.152;2023-11-18T09:36:31;20.48;;;9.90;;
51288;SDS011;37372;52.294;5.152;2023-11-18T09:38:58;18.98;;;9.30;;
51288;SDS011;37372;52.294;5.152;2023-11-18T09:41:24;24.87;;;10.20;;
51288;SDS011;37372;52.294;5.152;2023-11-18T09:43:52;17.27;;;9.05;;
51288;SDS011;37372;52.294;5.152;2023-11-18T09:46:29;21.92;;;9.63;;
51288;SDS011;37372;52.294;5.152;2023-11-18T09:51:40;19.73;;;8.70;;
51288;SDS011;37372;52.294;5.152;2023-11-18T09:54:10;21.77;;;8.97;;
51288;SDS011;37372;52.294;5.152;2023-11-18T09:56:51;22.95;;;9.55;;
51288;SDS011;37372;52.294;5.152;2023-11-18T09:59:51;23.85;;;8.73;;
51288;SDS011;37372;52.294;5.152;2023-11-18T10:02:38;21.20;;;8.68;;
51288;SDS011;37372;52.294;5.152;2023-11-18T10:05:05;21.52;;;9.32;;
51288;SDS011;37372;52.294;5.152;2023-11-18T10:07:37;17.93;;;8.50;;
51288;SDS011;37372;52.294;5.152;2023-11-18T10:10:06;19.50;;;8.68;;
51288;SDS011;37372;52.294;5.152;2023-11-18T10:12:40;20.65;;;8.60;;
51288;SDS011;37372;52.294;5.152;2023-11-18T10:15:08;19.63;;;8.85;;
51288;SDS011;37372;52.294;5.152;2023-11-18T10:17:41;23.17;;;8.25;;
51288;SDS011;37372;52.294;5.152;2023-11-18T10:20:47;18.73;;;8.20;;
51288;SDS011;37372;52.294;5.152;2023-11-18T10:23:16;17.17;;;8.32;;
51288;SDS011;37372;52.294;5.152;2023-11-18T10:30:58;24.42;;;8.63;;
51288;SDS011;37372;52.294;5.152;2023-11-18T10:33:28;19.67;;;8.10;;
51288;SDS011;37372;52.294;5.152;2023-11-18T10:35:55;17.50;;;8.13;;
51288;SDS011;37372;52.294;5.152;2023-11-18T10:38:22;17.35;;;7.82;;
51288;SDS011;37372;52.294;5.152;2023-11-18T10:40:54;17.33;;;8.52;;
51288;SDS011;37372;52.294;5.152;2023-11-18T10:43:21;20.88;;;8.38;;
51288;SDS011;37372;52.294;5.152;2023-11-18T10:45:52;17.20;;;8.10;;
51288;SDS011;37372;52.294;5.152;2023-11-18T10:48:28;20.05;;;7.70;;
51288;SDS011;37372;52.294;5.152;2023-11-18T10:50:54;15.77;;;8.52;;
51288;SDS011;37372;52.294;5.152;2023-11-18T10:53:20;19.93;;;8.50;;
51288;SDS011;37372;52.294;5.152;2023-11-18T10:55:46;18.58;;;8.60;;
51288;SDS011;37372;52.294;5.152;2023-11-18T10:58:11;16.07;;;8.07;;
51288;SDS011;37372;52.294;5.152;2023-11-18T11:00:46;18.65;;;8.43;;
51288;SDS011;37372;52.294;5.152;2023-11-18T11:03:13;19.08;;;8.38;;
51288;SDS011;37372;52.294;5.152;2023-11-18T11:05:39;18.50;;;8.30;;
51288;SDS011;37372;52.294;5.152;2023-11-18T11:08:07;18.75;;;8.57;;
51288;SDS011;37372;52.294;5.152;2023-11-18T11:10:33;17.83;;;8.45;;
51288;SDS011;37372;52.294;5.152;2023-11-18T11:13:00;17.90;;;8.27;;
51288;SDS011;37372;52.294;5.152;2023-11-18T11:15:30;22.02;;;8.52;;
51288;SDS011;37372;52.294;5.152;2023-11-18T11:18:07;16.07;;;8.23;;
51288;SDS011;37372;52.294;5.152;2023-11-18T11:20:37;20.20;;;8.85;;
51288;SDS011;37372;52.294;5.152;2023-11-18T11:26:09;17.63;;;8.27;;
51288;SDS011;37372;52.294;5.152;2023-11-18T11:31:38;17.23;;;8.13;;
51288;SDS011;37372;52.294;5.152;2023-11-18T11:34:16;20.55;;;8.43;;
51288;SDS011;37372;52.294;5.152;2023-11-18T11:36:49;15.95;;;8.00;;
51288;SDS011;37372;52.294;5.152;2023-11-18T11:39:16;18.73;;;8.35;;
51288;SDS011;37372;52.294;5.152;2023-11-18T11:41:46;17.15;;;7.28;;
51288;SDS011;37372;52.294;5.152;2023-11-18T11:44:16;17.73;;;7.43;;
51288;SDS011;37372;52.294;5.152;2023-11-18T11:46:44;12.80;;;6.78;;
51288;SDS011;37372;52.294;5.152;2023-11-18T11:49:21;19.13;;;7.32;;
51288;SDS011;37372;52.294;5.152;2023-11-18T11:51:57;17.55;;;7.22;;
51288;SDS011;37372;52.294;5.152;2023-11-18T11:54:37;16.50;;;7.43;;
51288;SDS011;37372;52.294;5.152;2023-11-18T11:57:07;16.97;;;7.57;;
51288;SDS011;37372;52.294;5.152;2023-11-18T12:02:11;16.00;;;6.70;;
51288;SDS011;37372;52.294;5.152;2023-11-18T12:04:43;14.02;;;6.85;;
51288;SDS011;37372;52.294;5.152;2023-11-18T12:07:09;16.08;;;6.55;;
51288;SDS011;37372;52.294;5.152;2023-11-18T12:09:35;16.50;;;6.22;;
51288;SDS011;37372;52.294;5.152;2023-11-18T12:12:05;13.82;;;6.80;;
51288;SDS011;37372;52.294;5.152;2023-11-18T12:14:49;13.10;;;5.67;;
51288;SDS011;37372;52.294;5.152;2023-11-18T12:17:17;11.98;;;5.85;;
51288;SDS011;37372;52.294;5.152;2023-11-18T12:19:46;10.82;;;5.43;;
51288;SDS011;37372;52.294;5.152;2023-11-18T12:22:17;11.82;;;5.38;;
51288;SDS011;37372;52.294;5.152;2023-11-18T12:24:44;10.35;;;5.18;;
51288;SDS011;37372;52.294;5.152;2023-11-18T12:27:13;11.80;;;5.07;;
51288;SDS011;37372;52.294;5.152;2023-11-18T12:30:00;15.05;;;5.50;;
51288;SDS011;37372;52.294;5.152;2023-11-18T12:35:35;9.68;;;4.45;;
51288;SDS011;37372;52.294;5.152;2023-11-18T12:41:10;10.60;;;4.30;;
51288;SDS011;37372;52.294;5.152;2023-11-18T12:49:44;7.13;;;4.00;;
51288;SDS011;37372;52.294;5.152;2023-11-18T12:52:15;9.50;;;4.20;;
51288;SDS011;37372;52.294;5.152;2023-11-18T12:54:43;7.63;;;3.83;;
51288;SDS011;37372;52.294;5.152;2023-11-18T12:57:15;8.75;;;3.70;;
51288;SDS011;37372;52.294;5.152;2023-11-18T12:59:41;7.73;;;3.40;;
51288;SDS011;37372;52.294;5.152;2023-11-18T13:02:08;7.80;;;3.87;;
51288;SDS011;37372;52.294;5.152;2023-11-18T13:04:47;7.38;;;3.92;;
51288;SDS011;37372;52.294;5.152;2023-11-18T13:07:14;9.02;;;4.65;;
51288;SDS011;37372;52.294;5.152;2023-11-18T13:09:40;7.13;;;3.65;;
51288;SDS011;37372;52.294;5.152;2023-11-18T13:12:09;6.75;;;3.45;;
51288;SDS011;37372;52.294;5.152;2023-11-18T13:14:35;7.97;;;3.20;;
51288;SDS011;37372;52.294;5.152;2023-11-18T13:17:04;6.28;;;3.50;;
51288;SDS011;37372;52.294;5.152;2023-11-18T13:19:34;6.65;;;3.30;;
51288;SDS011;37372;52.294;5.152;2023-11-18T13:24:26;5.47;;;3.20;;
51288;SDS011;37372;52.294;5.152;2023-11-18T13:26:55;8.68;;;3.33;;
51288;SDS011;37372;52.294;5.152;2023-11-18T13:29:22;5.22;;;3.30;;
51288;SDS011;37372;52.294;5.152;2023-11-18T13:31:49;7.47;;;3.20;;
51288;SDS011;37372;52.294;5.152;2023-11-18T13:34:16;7.32;;;3.13;;
51288;SDS011;37372;52.294;5.152;2023-11-18T13:36:42;5.68;;;3.38;;
51288;SDS011;37372;52.294;5.152;2023-11-18T13:39:08;7.05;;;3.28;;
51288;SDS011;37372;52.294;5.152;2023-11-18T13:41:41;7.95;;;3.30;;
51288;SDS011;37372;52.294;5.152;2023-11-18T13:44:08;4.93;;;2.73;;
51288;SDS011;37372;52.294;5.152;2023-11-18T13:46:37;6.07;;;3.15;;
51288;SDS011;37372;52.294;5.152;2023-11-18T13:49:07;5.70;;;3.08;;
51288;SDS011;37372;52.294;5.152;2023-11-18T13:51:33;5.93;;;2.70;;
51288;SDS011;37372;52.294;5.152;2023-11-18T13:54:01;5.13;;;2.73;;
51288;SDS011;37372;52.294;5.152;2023-11-18T13:56:28;7.85;;;4.13;;
51288;SDS011;37372;52.294;5.152;2023-11-18T13:58:54;6.75;;;4.88;;
51288;SDS011;37372;52.294;5.152;2023-11-18T14:01:20;7.97;;;4.50;;
51288;SDS011;37372;52.294;5.152;2023-11-18T14:03:46;8.10;;;4.20;;
51288;SDS011;37372;52.294;5.152;2023-11-18T14:06:12;6.43;;;3.20;;
51288;SDS011;37372;52.294;5.152;2023-11-18T14:08:42;4.93;;;2.90;;
51288;SDS011;37372;52.294;5.152;2023-11-18T14:11:10;5.07;;;2.90;;
51288;SDS011;37372;52.294;5.152;2023-11-18T14:13:36;3.80;;;2.43;;
51288;SDS011;37372;52.294;5.152;2023-11-18T14:16:02;5.03;;;2.97;;
51288;SDS011;37372;52.294;5.152;2023-11-18T14:18:28;6.90;;;3.53;;
51288;SDS011;37372;52.294;5.152;2023-11-18T14:20:54;5.27;;;3.27;;
51288;SDS011;37372;52.294;5.152;2023-11-18T14:23:20;6.93;;;3.78;;
51288;SDS011;37372;52.294;5.152;2023-11-18T14:25:47;5.70;;;2.83;;
51288;SDS011;37372;52.294;5.152;2023-11-18T14:28:13;5.17;;;3.03;;
51288;SDS011;37372;52.294;5.152;2023-11-18T14:30:38;4.07;;;2.25;;
51288;SDS011;37372;52.294;5.152;2023-11-18T14:33:05;3.80;;;2.50;;
51288;SDS011;37372;52.294;5.152;2023-11-18T14:35:32;4.63;;;2.90;;
51288;SDS011;37372;52.294;5.152;2023-11-18T14:37:58;4.05;;;2.78;;
51288;SDS011;37372;52.294;5.152;2023-11-18T14:40:26;4.45;;;2.42;;
51288;SDS011;37372;52.294;5.152;2023-11-18T14:42:52;4.07;;;2.30;;
51288;SDS011;37372;52.294;5.152;2023-11-18T14:45:19;4.38;;;2.30;;
51288;SDS011;37372;52.294;5.152;2023-11-18T14:47:46;3.40;;;2.10;;
51288;SDS011;37372;52.294;5.152;2023-11-18T14:50:13;3.15;;;2.30;;
51288;SDS011;37372;52.294;5.152;2023-11-18T14:52:50;5.28;;;2.90;;
51288;SDS011;37372;52.294;5.152;2023-11-18T14:55:34;4.25;;;2.40;;
51288;SDS011;37372;52.294;5.152;2023-11-18T14:58:00;6.23;;;3.17;;
51288;SDS011;37372;52.294;5.152;2023-11-18T15:00:25;7.70;;;5.50;;
51288;SDS011;37372;52.294;5.152;2023-11-18T15:02:52;6.43;;;3.53;;
51288;SDS011;37372;52.294;5.152;2023-11-18T15:05:19;4.97;;;2.90;;